createdAt,value
2024-02-15T00:01:22.902Z,20.99
2024-02-15T00:03:49.658Z,20.91
2024-02-15T00:06:16.470Z,20.88
2024-02-15T00:08:43.288Z,20.89
2024-02-15T00:11:10.017Z,20.93
2024-02-15T00:13:36.742Z,20.91
2024-02-15T00:16:03.797Z,20.87
2024-02-15T00:18:32.674Z,20.84
2024-02-15T00:20:59.512Z,20.94
2024-02-15T00:23:26.293Z,21.06
2024-02-15T00:25:52.989Z,21.07
2024-02-15T00:28:19.679Z,21.18
2024-02-15T00:30:46.386Z,21.22
2024-02-15T00:33:13.297Z,21.25
2024-02-15T00:35:41.864Z,21.16
2024-02-15T00:38:09.236Z,21.30
2024-02-15T00:40:36.128Z,21.38
2024-02-15T00:43:02.985Z,21.18
2024-02-15T00:45:29.703Z,21.29
2024-02-15T00:47:56.509Z,21.16
2024-02-15T00:50:23.237Z,21.05
2024-02-15T00:52:51.409Z,20.96
2024-02-15T00:55:18.199Z,21.34
2024-02-15T00:57:44.896Z,21.21
2024-02-15T01:00:12.413Z,21.07
2024-02-15T01:02:39.263Z,21.02
2024-02-15T01:05:06.297Z,21.35
2024-02-15T01:07:33.014Z,21.44
2024-02-15T01:10:01.117Z,21.38
2024-02-15T01:12:27.899Z,21.54
2024-02-15T01:14:54.734Z,21.48
2024-02-15T01:17:21.557Z,21.61
2024-02-15T01:19:48.300Z,21.69
2024-02-15T01:22:15.056Z,21.54
2024-02-15T01:24:41.750Z,21.43
2024-02-15T01:27:09.886Z,21.62
2024-02-15T01:29:36.908Z,21.67
2024-02-15T01:32:04.386Z,21.72
2024-02-15T01:34:31.202Z,21.59
2024-02-15T01:36:57.951Z,21.56
2024-02-15T01:39:24.676Z,21.68
2024-02-15T01:41:51.434Z,21.73
2024-02-15T01:44:19.771Z,21.77
2024-02-15T01:46:46.945Z,21.70
2024-02-15T01:49:13.910Z,21.67
2024-02-15T01:51:41.387Z,21.66
2024-02-15T01:54:08.246Z,21.74
2024-02-15T01:56:35.078Z,21.79
2024-02-15T01:59:02.685Z,21.64
2024-02-15T02:01:31.911Z,21.67
2024-02-15T02:03:59.414Z,21.69
2024-02-15T02:06:26.582Z,21.77
2024-02-15T02:08:53.736Z,21.93
2024-02-15T02:11:21.136Z,21.85
2024-02-15T02:13:47.828Z,21.88
2024-02-15T02:16:27.076Z,21.76
2024-02-15T02:18:56.129Z,21.64
2024-02-15T02:21:23.293Z,21.82
2024-02-15T02:23:54.306Z,21.76
2024-02-15T02:26:23.188Z,21.73
2024-02-15T02:28:50.416Z,21.68
2024-02-15T02:31:17.290Z,21.69
2024-02-15T02:33:49.275Z,21.65
2024-02-15T02:36:16.094Z,21.69
2024-02-15T02:38:42.861Z,21.65
2024-02-15T02:41:09.624Z,21.69
2024-02-15T02:43:37.669Z,21.59
2024-02-15T02:46:04.714Z,21.55
2024-02-15T02:48:31.567Z,21.69
2024-02-15T02:50:58.592Z,21.70
2024-02-15T02:53:25.477Z,21.69
2024-02-15T02:55:52.686Z,21.75
2024-02-15T02:58:19.329Z,21.77
2024-02-15T03:00:47.445Z,21.71
2024-02-15T03:03:14.227Z,21.79
2024-02-15T03:05:41.005Z,21.77
2024-02-15T03:08:09.189Z,21.67
2024-02-15T03:10:36.051Z,21.79
2024-02-15T03:13:02.735Z,21.78
2024-02-15T03:15:29.461Z,21.72
2024-02-15T03:17:57.587Z,21.68
2024-02-15T03:20:24.406Z,21.70
2024-02-15T03:22:54.831Z,21.72
2024-02-15T03:25:21.534Z,21.72
2024-02-15T03:27:48.190Z,21.59
2024-02-15T03:30:15.224Z,21.53
2024-02-15T03:32:42.062Z,21.60
2024-02-15T03:35:10.272Z,21.68
2024-02-15T03:37:36.934Z,21.65
2024-02-15T03:40:04.446Z,21.55
2024-02-15T03:42:31.785Z,21.63
2024-02-15T03:44:58.474Z,21.47
2024-02-15T03:47:25.162Z,21.55
2024-02-15T03:49:51.822Z,21.62
2024-02-15T03:52:19.849Z,21.36
2024-02-15T03:54:46.550Z,21.25
2024-02-15T03:57:13.222Z,21.19
2024-02-15T03:59:39.933Z,21.25
2024-02-15T04:02:06.646Z,21.22
2024-02-15T04:04:33.355Z,21.30
2024-02-15T04:07:00.270Z,21.32
2024-02-15T04:09:28.460Z,21.31
2024-02-15T04:11:55.283Z,21.26
2024-02-15T04:14:22.041Z,21.36
2024-02-15T04:16:48.716Z,21.20
2024-02-15T04:19:16.490Z,21.34
2024-02-15T04:21:43.201Z,21.33
2024-02-15T04:24:09.892Z,21.31
2024-02-15T04:26:37.995Z,21.22
2024-02-15T04:29:08.511Z,21.27
2024-02-15T04:31:36.349Z,21.42
2024-02-15T04:34:03.155Z,21.46
2024-02-15T04:36:30.008Z,21.20
2024-02-15T04:38:56.751Z,21.39
2024-02-15T04:41:23.451Z,21.37
2024-02-15T04:43:52.001Z,21.55
2024-02-15T04:46:18.770Z,21.38
2024-02-15T04:48:45.590Z,21.22
2024-02-15T04:51:12.875Z,21.27
2024-02-15T04:53:39.716Z,21.31
2024-02-15T04:56:06.860Z,21.38
2024-02-15T04:58:33.563Z,21.34
2024-02-15T05:01:01.652Z,21.28
2024-02-15T05:03:28.344Z,21.13
2024-02-15T05:05:55.096Z,21.18
2024-02-15T05:08:21.841Z,21.24
2024-02-15T05:10:48.577Z,21.34
2024-02-15T05:13:15.361Z,21.16
2024-02-15T05:15:42.215Z,21.35
2024-02-15T05:18:10.504Z,21.37
2024-02-15T05:20:37.241Z,21.19
2024-02-15T05:23:04.335Z,21.13
2024-02-15T05:25:31.037Z,21.32
2024-02-15T05:27:58.194Z,21.40
2024-02-15T05:30:26.091Z,21.47
2024-02-15T05:32:53.327Z,21.56
2024-02-15T05:35:21.469Z,21.47
2024-02-15T05:37:48.142Z,21.27
2024-02-15T05:40:15.106Z,21.18
2024-02-15T05:42:42.942Z,21.43
2024-02-15T05:45:30.108Z,21.08
2024-02-15T05:47:57.037Z,21.31
2024-02-15T05:50:25.733Z,21.43
2024-02-15T05:52:52.714Z,21.48
2024-02-15T05:55:19.407Z,21.42
2024-02-15T05:57:46.190Z,21.46
2024-02-15T06:00:21.570Z,21.35
2024-02-15T06:02:49.933Z,21.48
2024-02-15T06:05:16.690Z,21.63
2024-02-15T06:07:45.046Z,21.41
2024-02-15T06:10:11.966Z,21.46
2024-02-15T06:12:38.661Z,21.38
2024-02-15T06:15:05.822Z,21.20
2024-02-15T06:17:32.622Z,21.38
2024-02-15T06:19:59.398Z,21.36
2024-02-15T06:22:26.084Z,21.22
2024-02-15T06:24:54.123Z,21.30
2024-02-15T06:27:20.808Z,21.33
2024-02-15T06:29:47.624Z,21.66
2024-02-15T06:32:14.379Z,21.41
2024-02-15T06:34:43.309Z,21.54
2024-02-15T06:37:10.041Z,21.44
2024-02-15T06:39:36.720Z,21.51
2024-02-15T06:42:05.436Z,21.19
2024-02-15T06:44:32.283Z,21.44
2024-02-15T06:46:59.046Z,21.64
2024-02-15T06:49:25.896Z,21.49
2024-02-15T06:51:52.715Z,21.45
2024-02-15T06:54:19.548Z,21.60
2024-02-15T06:56:46.674Z,21.60
2024-02-15T06:59:15.403Z,21.63
2024-02-15T07:01:42.247Z,21.58
2024-02-15T07:04:09.125Z,21.67
2024-02-15T07:06:37.417Z,21.57
2024-02-15T07:09:04.479Z,21.70
2024-02-15T07:11:32.123Z,21.85
2024-02-15T07:13:58.994Z,21.66
2024-02-15T07:16:27.184Z,21.65
2024-02-15T07:18:54.246Z,21.78
2024-02-15T07:21:21.522Z,21.71
2024-02-15T07:23:48.454Z,21.92
2024-02-15T07:26:15.271Z,21.64
2024-02-15T07:28:42.115Z,21.72
2024-02-15T07:31:08.877Z,21.72
2024-02-15T07:33:37.089Z,21.59
2024-02-15T07:36:04.408Z,21.87
2024-02-15T07:38:31.149Z,21.98
2024-02-15T07:40:57.821Z,21.86
2024-02-15T07:43:24.492Z,21.78
2024-02-15T07:45:51.189Z,21.98
2024-02-15T07:48:18.100Z,22.10
2024-02-15T07:50:46.513Z,22.01
2024-02-15T07:53:13.517Z,21.79
2024-02-15T07:55:40.301Z,22.10
2024-02-15T07:58:06.982Z,22.18
2024-02-15T08:00:33.771Z,22.20
2024-02-15T08:03:00.580Z,22.24
2024-02-15T08:05:27.387Z,22.05
2024-02-15T08:07:55.576Z,22.04
2024-02-15T08:10:22.230Z,22.12
2024-02-15T08:12:48.928Z,22.18
2024-02-15T08:15:15.959Z,22.16
2024-02-15T08:17:44.761Z,22.10
2024-02-15T08:20:12.410Z,22.19
2024-02-15T08:22:39.443Z,22.21
2024-02-15T08:25:10.441Z,22.07
2024-02-15T08:27:38.445Z,21.98
2024-02-15T08:30:06.500Z,22.12
2024-02-15T08:32:33.337Z,22.49
2024-02-15T08:35:00.389Z,22.33
2024-02-15T08:37:27.313Z,22.39
2024-02-15T08:39:53.980Z,22.23
2024-02-15T08:42:22.120Z,22.23
2024-02-15T08:44:48.972Z,22.57
2024-02-15T08:47:15.686Z,22.38
2024-02-15T08:49:42.407Z,22.74
2024-02-15T08:52:09.188Z,22.54
2024-02-15T08:54:36.919Z,22.70
2024-02-15T08:57:03.907Z,22.72
2024-02-15T08:59:32.022Z,22.67
2024-02-15T09:01:58.705Z,22.45
2024-02-15T09:04:25.370Z,22.60
2024-02-15T09:06:52.340Z,22.69
2024-02-15T09:09:19.171Z,22.86
2024-02-15T09:11:45.990Z,22.92
2024-02-15T09:14:12.757Z,23.00
2024-02-15T09:16:40.798Z,22.83
2024-02-15T09:19:07.639Z,22.86
2024-02-15T09:21:34.431Z,22.88
2024-02-15T09:24:01.231Z,22.88
2024-02-15T09:26:27.906Z,22.66
2024-02-15T09:28:54.691Z,22.94
2024-02-15T09:31:21.394Z,23.11
2024-02-15T09:33:49.614Z,23.36
2024-02-15T09:36:16.501Z,23.27
2024-02-15T09:38:43.324Z,23.05
2024-02-15T09:41:10.206Z,23.36
2024-02-15T09:43:37.168Z,23.51
2024-02-15T09:46:04.360Z,23.29
2024-02-15T09:48:33.007Z,23.48
2024-02-15T09:51:02.638Z,23.17
2024-02-15T09:53:29.790Z,23.46
2024-02-15T09:55:57.185Z,23.50
2024-02-15T09:58:23.910Z,23.69
2024-02-15T10:00:50.905Z,23.54
2024-02-15T10:03:20.243Z,23.50
2024-02-15T10:05:49.488Z,23.30
2024-02-15T10:08:17.619Z,23.16
2024-02-15T10:10:44.325Z,23.41
2024-02-15T10:13:14.505Z,23.53
2024-02-15T10:15:41.386Z,23.76
2024-02-15T10:18:09.625Z,23.63
2024-02-15T10:20:36.744Z,23.81
2024-02-15T10:23:13.442Z,23.86
2024-02-15T10:25:42.120Z,24.13
2024-02-15T10:28:10.440Z,24.10
2024-02-15T10:30:38.409Z,23.71
2024-02-15T10:33:06.445Z,24.06
2024-02-15T10:35:33.394Z,24.05
2024-02-15T10:38:07.408Z,24.18
2024-02-15T10:40:34.139Z,24.32
2024-02-15T10:43:04.332Z,24.18
2024-02-15T10:45:32.590Z,24.50
2024-02-15T10:47:59.919Z,24.30
2024-02-15T10:50:26.967Z,24.12
2024-02-15T10:52:56.356Z,23.91
2024-02-15T10:55:36.730Z,24.28
2024-02-15T10:58:06.721Z,24.02
2024-02-15T11:00:34.808Z,23.99
2024-02-15T11:03:03.218Z,24.49
2024-02-15T11:05:34.166Z,24.31
2024-02-15T11:08:01.480Z,24.19
2024-02-15T11:10:29.069Z,24.25
2024-02-15T11:12:55.819Z,24.20
2024-02-15T11:15:44.779Z,24.28
2024-02-15T11:18:11.859Z,24.27
2024-02-15T11:20:48.221Z,24.50
2024-02-15T11:23:35.535Z,24.51
2024-02-15T11:26:04.878Z,24.78
2024-02-15T11:28:37.650Z,24.82
2024-02-15T11:31:08.302Z,25.00
2024-02-15T11:33:36.014Z,24.84
2024-02-15T11:36:07.531Z,24.90
2024-02-15T11:38:34.633Z,25.02
2024-02-15T11:41:02.795Z,24.85
2024-02-15T11:43:59.982Z,24.85
2024-02-15T11:46:28.606Z,24.70
2024-02-15T11:48:55.530Z,24.67
2024-02-15T11:51:29.804Z,24.87
2024-02-15T11:54:03.787Z,24.92
2024-02-15T11:56:30.631Z,24.69
2024-02-15T11:59:05.111Z,24.89
2024-02-15T12:01:33.884Z,24.89
2024-02-15T12:04:06.810Z,25.13
2024-02-15T12:06:34.685Z,25.04
2024-02-15T12:09:01.708Z,25.37
2024-02-15T12:11:28.467Z,25.50
2024-02-15T12:13:55.174Z,25.50
2024-02-15T12:16:21.863Z,25.49
2024-02-15T12:18:50.428Z,25.05
2024-02-15T12:21:20.843Z,25.77
2024-02-15T12:23:47.779Z,25.80
2024-02-15T12:26:14.639Z,25.89
2024-02-15T12:28:45.549Z,25.65
2024-02-15T12:31:13.296Z,25.74
2024-02-15T12:33:40.136Z,25.41
2024-02-15T12:36:09.402Z,25.59
2024-02-15T12:38:36.775Z,25.30
2024-02-15T12:41:03.685Z,25.47
2024-02-15T12:43:30.351Z,25.37
2024-02-15T12:45:57.229Z,25.44
2024-02-15T12:48:24.245Z,25.29
2024-02-15T12:50:51.088Z,25.43
2024-02-15T12:53:23.430Z,25.58
2024-02-15T12:55:54.344Z,25.45
2024-02-15T12:58:21.023Z,25.57
2024-02-15T13:00:47.798Z,25.60
2024-02-15T13:03:14.528Z,25.47
2024-02-15T13:05:41.888Z,25.82
2024-02-15T13:08:09.098Z,25.77
2024-02-15T13:10:37.971Z,25.86
2024-02-15T13:13:04.875Z,25.96
2024-02-15T13:15:31.800Z,25.95
2024-02-15T13:17:58.749Z,26.14
2024-02-15T13:20:25.702Z,26.18
2024-02-15T13:22:52.409Z,26.10
2024-02-15T13:25:19.078Z,26.10
2024-02-15T13:27:47.156Z,25.91
2024-02-15T13:30:14.392Z,25.76
2024-02-15T13:32:41.639Z,25.71
2024-02-15T13:35:09.793Z,25.78
2024-02-15T13:37:36.482Z,25.84
2024-02-15T13:40:03.306Z,25.77
2024-02-15T13:42:30.021Z,25.75
2024-02-15T13:44:58.164Z,25.81
2024-02-15T13:47:24.878Z,25.84
2024-02-15T13:49:51.781Z,25.54
2024-02-15T13:52:18.492Z,25.30
2024-02-15T13:54:45.180Z,25.26
2024-02-15T13:57:12.065Z,25.29
2024-02-15T13:59:39.172Z,25.28
2024-02-15T14:02:07.237Z,25.33
2024-02-15T14:04:33.952Z,25.40
2024-02-15T14:07:00.701Z,25.34
2024-02-15T14:09:28.607Z,25.57
2024-02-15T14:11:55.314Z,25.70
2024-02-15T14:14:22.029Z,25.87
2024-02-15T14:16:48.732Z,25.60
2024-02-15T14:19:16.869Z,25.49
2024-02-15T14:21:43.520Z,25.46
2024-02-15T14:24:10.241Z,25.17
2024-02-15T14:26:37.021Z,25.08
2024-02-15T14:29:03.697Z,24.96
2024-02-15T14:31:30.384Z,24.76
2024-02-15T14:33:57.310Z,24.83
2024-02-15T14:36:25.458Z,24.63
2024-02-15T14:38:52.329Z,24.52
2024-02-15T14:41:32.333Z,24.41
2024-02-15T14:44:00.244Z,24.37
2024-02-15T14:46:26.954Z,24.34
2024-02-15T14:48:53.855Z,24.39
2024-02-15T14:51:20.839Z,24.39
2024-02-15T14:53:49.365Z,24.29
2024-02-15T14:56:16.011Z,24.24
2024-02-15T14:58:42.673Z,23.86
2024-02-15T15:01:10.796Z,23.74
2024-02-15T15:03:38.116Z,23.81
2024-02-15T15:06:05.781Z,23.74
2024-02-15T15:08:32.744Z,23.64
2024-02-15T15:11:01.063Z,23.69
2024-02-15T15:13:27.773Z,23.58
2024-02-15T15:15:54.638Z,23.57
2024-02-15T15:18:21.449Z,23.53
2024-02-15T15:20:48.333Z,23.46
2024-02-15T15:23:15.055Z,23.51
2024-02-15T15:25:41.945Z,23.50
2024-02-15T15:28:10.153Z,23.46
2024-02-15T15:30:37.080Z,23.51
2024-02-15T15:33:04.472Z,23.46
2024-02-15T15:35:34.040Z,23.25
2024-02-15T15:38:01.454Z,23.24
2024-02-15T15:40:28.142Z,23.24
2024-02-15T15:42:54.826Z,23.04
2024-02-15T15:45:23.028Z,23.04
2024-02-15T15:47:49.849Z,23.10
2024-02-15T15:50:16.591Z,23.01
2024-02-15T15:52:43.523Z,23.01
2024-02-15T15:55:10.347Z,23.04
2024-02-15T15:57:37.051Z,23.12
2024-02-15T16:00:04.668Z,23.01
2024-02-15T16:02:32.723Z,23.03
2024-02-15T16:05:01.965Z,23.08
2024-02-15T16:07:29.212Z,23.08
2024-02-15T16:09:55.920Z,23.26
2024-02-15T16:12:22.721Z,23.26
2024-02-15T16:14:50.403Z,23.17
2024-02-15T16:17:17.368Z,23.16
2024-02-15T16:19:45.428Z,23.17
2024-02-15T16:22:12.266Z,23.15
2024-02-15T16:24:38.966Z,23.16
2024-02-15T16:27:05.787Z,23.12
2024-02-15T16:29:32.522Z,23.06
2024-02-15T16:31:59.326Z,23.20
2024-02-15T16:34:26.341Z,23.18
2024-02-15T16:36:54.645Z,23.24
2024-02-15T16:39:21.557Z,23.39
2024-02-15T16:41:48.479Z,23.28
2024-02-15T16:44:15.361Z,23.24
2024-02-15T16:46:42.942Z,23.30
2024-02-15T16:49:10.571Z,23.21
2024-02-15T16:51:37.425Z,23.22
2024-02-15T16:54:05.680Z,23.09
2024-02-15T16:56:32.372Z,23.17
2024-02-15T16:58:59.151Z,23.29
2024-02-15T17:01:26.392Z,23.29
2024-02-15T17:03:53.262Z,23.15
2024-02-15T17:06:20.514Z,23.17
2024-02-15T17:08:47.678Z,23.25
2024-02-15T17:11:15.983Z,23.26
2024-02-15T17:13:42.677Z,23.27
2024-02-15T17:16:09.312Z,23.22
2024-02-15T17:18:36.080Z,23.18
2024-02-15T17:21:02.845Z,23.22
2024-02-15T17:23:29.553Z,23.35
2024-02-15T17:25:56.227Z,23.21
2024-02-15T17:28:24.410Z,23.38
2024-02-15T17:30:51.255Z,23.34
2024-02-15T17:33:18.023Z,23.43
2024-02-15T17:35:45.103Z,23.38
2024-02-15T17:38:11.768Z,23.42
2024-02-15T17:40:39.027Z,23.46
2024-02-15T17:43:05.916Z,23.42
2024-02-15T17:45:34.093Z,23.41
2024-02-15T17:48:00.903Z,23.37
2024-02-15T17:50:27.611Z,23.26
2024-02-15T17:52:54.512Z,23.31
2024-02-15T17:55:21.695Z,23.40
2024-02-15T17:57:48.647Z,23.35
2024-02-15T18:00:16.364Z,23.33
2024-02-15T18:02:44.755Z,23.33
2024-02-15T18:05:11.799Z,23.21
2024-02-15T18:07:39.165Z,23.28
2024-02-15T18:10:07.353Z,23.30
2024-02-15T18:12:34.185Z,23.31
2024-02-15T18:15:01.664Z,23.38
2024-02-15T18:17:28.413Z,23.29
2024-02-15T18:19:56.497Z,23.40
2024-02-15T18:22:23.173Z,23.35
2024-02-15T18:24:49.873Z,23.41
2024-02-15T18:27:16.627Z,23.33
2024-02-15T18:29:43.337Z,23.16
2024-02-15T18:32:10.032Z,23.16
2024-02-15T18:34:37.398Z,23.11
2024-02-15T18:37:05.558Z,22.95
2024-02-15T18:39:32.377Z,22.93
2024-02-15T18:41:59.207Z,22.84
2024-02-15T18:44:25.868Z,22.75
2024-02-15T18:46:52.552Z,22.86
2024-02-15T18:49:26.889Z,22.74
2024-02-15T18:51:59.643Z,22.81
2024-02-15T18:54:27.878Z,22.74
2024-02-15T18:56:54.630Z,22.68
2024-02-15T18:59:21.359Z,22.66
2024-02-15T19:01:48.203Z,22.62
2024-02-15T19:04:14.954Z,22.65
2024-02-15T19:06:42.220Z,22.59
2024-02-15T19:09:10.178Z,22.62
2024-02-15T19:11:38.266Z,22.56
2024-02-15T19:14:04.987Z,22.58
2024-02-15T19:16:31.720Z,22.60
2024-02-15T19:18:58.453Z,22.46
2024-02-15T19:21:25.186Z,22.59
2024-02-15T19:23:51.906Z,22.54
2024-02-15T19:26:18.568Z,22.58
2024-02-15T19:28:46.730Z,22.53
2024-02-15T19:31:13.566Z,22.68
2024-02-15T19:33:47.806Z,22.52
2024-02-15T19:36:19.462Z,22.49
2024-02-15T19:38:46.164Z,22.51
2024-02-15T19:41:16.050Z,22.34
2024-02-15T19:43:42.735Z,22.48
2024-02-15T19:46:10.783Z,22.51
2024-02-15T19:48:37.577Z,22.51
2024-02-15T19:51:05.559Z,22.50
2024-02-15T19:53:32.380Z,22.55
2024-02-15T19:55:59.069Z,22.48
2024-02-15T19:58:25.757Z,22.44
2024-02-15T20:00:52.639Z,22.16
2024-02-15T20:03:20.886Z,22.25
2024-02-15T20:05:47.838Z,22.27
2024-02-15T20:08:14.803Z,22.29
2024-02-15T20:10:41.750Z,22.29
2024-02-15T20:13:08.427Z,22.10
2024-02-15T20:15:35.347Z,22.08
2024-02-15T20:18:02.254Z,22.16
2024-02-15T20:20:30.579Z,22.05
2024-02-15T20:22:57.475Z,22.34
2024-02-15T20:25:24.224Z,22.22
2024-02-15T20:27:51.188Z,22.25
2024-02-15T20:30:18.467Z,22.30
2024-02-15T20:32:45.567Z,22.22
2024-02-15T20:35:12.674Z,22.29
2024-02-15T20:37:41.330Z,22.36
2024-02-15T20:40:09.402Z,22.36
2024-02-15T20:42:36.223Z,22.37
2024-02-15T20:45:03.465Z,22.31
2024-02-15T20:47:30.408Z,22.27
2024-02-15T20:49:57.386Z,22.31
2024-02-15T20:52:24.308Z,22.28
2024-02-15T20:54:52.580Z,22.23
2024-02-15T20:57:19.315Z,22.20
2024-02-15T20:59:46.120Z,22.16
2024-02-15T21:02:12.860Z,22.16
2024-02-15T21:04:39.820Z,22.13
2024-02-15T21:07:06.834Z,22.15
2024-02-15T21:09:33.722Z,22.10
2024-02-15T21:12:01.939Z,22.07
2024-02-15T21:14:28.710Z,22.01
2024-02-15T21:16:55.424Z,22.12
2024-02-15T21:19:22.122Z,21.95
2024-02-15T21:21:48.856Z,21.93
2024-02-15T21:24:15.633Z,21.88
2024-02-15T21:26:42.951Z,21.85
2024-02-15T21:29:11.134Z,21.94
2024-02-15T21:31:37.901Z,21.86
2024-02-15T21:34:04.860Z,21.88
2024-02-15T21:36:31.787Z,21.79
2024-02-15T21:38:58.552Z,21.86
2024-02-15T21:41:25.287Z,21.92
2024-02-15T21:43:52.106Z,22.01
2024-02-15T21:46:20.984Z,21.88
2024-02-15T21:48:47.946Z,21.84
2024-02-15T21:51:14.822Z,21.86
2024-02-15T21:53:41.548Z,21.78
2024-02-15T21:56:08.244Z,21.72
2024-02-15T21:58:34.987Z,21.73
2024-02-15T22:01:01.850Z,21.58
2024-02-15T22:03:29.983Z,21.45
2024-02-15T22:05:56.849Z,21.45
2024-02-15T22:08:23.634Z,21.36
2024-02-15T22:10:50.619Z,21.51
2024-02-15T22:13:17.405Z,21.59
2024-02-15T22:15:44.147Z,21.58
2024-02-15T22:18:11.130Z,21.55
2024-02-15T22:20:39.350Z,21.47
2024-02-15T22:23:06.195Z,21.57
2024-02-15T22:25:32.874Z,21.46
2024-02-15T22:27:59.620Z,21.54
2024-02-15T22:30:26.511Z,21.47
2024-02-15T22:32:53.591Z,21.41
2024-02-15T22:35:20.381Z,21.32
2024-02-15T22:37:48.654Z,21.27
2024-02-15T22:40:15.478Z,21.25
2024-02-15T22:42:42.182Z,21.20
2024-02-15T22:45:09.674Z,21.18
2024-02-15T22:47:36.732Z,21.22
2024-02-15T22:50:03.725Z,21.20
2024-02-15T22:52:30.412Z,21.14
2024-02-15T22:54:58.494Z,21.04
2024-02-15T22:57:25.371Z,21.05
2024-02-15T22:59:52.125Z,21.10
2024-02-15T23:02:18.908Z,21.09
2024-02-15T23:04:45.690Z,20.96
2024-02-15T23:07:12.628Z,20.93
2024-02-15T23:09:39.710Z,20.94
2024-02-15T23:12:08.408Z,20.90
2024-02-15T23:14:35.279Z,20.93
2024-02-15T23:17:01.984Z,20.87
2024-02-15T23:19:28.825Z,20.86
2024-02-15T23:21:55.550Z,20.90
2024-02-15T23:24:22.316Z,20.97
2024-02-15T23:26:49.156Z,20.93
2024-02-15T23:29:17.324Z,20.95
2024-02-15T23:31:44.056Z,20.93
2024-02-15T23:34:10.892Z,20.85
2024-02-15T23:36:37.796Z,20.85
2024-02-15T23:39:04.707Z,20.82
2024-02-15T23:41:31.448Z,20.91
2024-02-15T23:43:58.133Z,20.88
2024-02-15T23:46:26.261Z,20.83
2024-02-15T23:48:53.248Z,20.93
2024-02-15T23:51:20.327Z,20.89
2024-02-15T23:53:47.072Z,20.79
2024-02-15T23:56:13.751Z,20.79
2024-02-15T23:58:40.430Z,20.75
